createdAt,value
2023-01-04T07:01:49.353Z,29.32
2023-01-04T07:03:14.744Z,27.64
2023-01-04T07:03:50.205Z,27.30
2023-01-04T07:04:49.250Z,27.92
2023-01-04T07:05:49.181Z,28.96
2023-01-04T07:06:49.176Z,30.29
2023-01-04T07:07:49.154Z,32.24
2023-01-04T07:08:49.128Z,33.85
2023-01-04T07:09:49.114Z,35.96
2023-01-04T07:10:49.103Z,38.08
2023-01-04T07:11:49.115Z,40.69
2023-01-04T07:12:49.074Z,42.97
2023-01-04T07:13:49.095Z,45.19
2023-01-04T07:14:49.054Z,47.03
2023-01-04T07:15:49.096Z,48.08
2023-01-04T07:16:49.156Z,46.96
2023-01-04T07:17:49.030Z,49.41
2023-01-04T07:18:49.019Z,52.63
2023-01-04T07:19:49.006Z,55.51
2023-01-04T07:20:48.987Z,57.65
2023-01-04T07:21:48.993Z,59.95
2023-01-04T07:22:48.961Z,61.71
2023-01-04T07:23:48.994Z,63.34
2023-01-04T07:24:48.944Z,66.07
2023-01-04T07:25:48.957Z,68.83
2023-01-04T07:26:48.916Z,71.59
2023-01-04T07:27:48.916Z,74.24
2023-01-04T07:28:48.924Z,77.18
2023-01-04T07:29:48.901Z,79.59
2023-01-04T07:30:48.908Z,81.99
2023-01-04T07:31:48.883Z,82.72
2023-01-04T07:32:48.849Z,84.38
2023-01-04T07:33:48.874Z,85.93
2023-01-04T07:34:48.830Z,87.63
2023-01-04T07:35:48.824Z,89.31
2023-01-04T07:36:48.797Z,90.85
2023-01-04T07:37:53.722Z,91.85
2023-01-04T07:38:49.798Z,93.69
2023-01-04T07:39:48.785Z,94.96
2023-01-04T07:40:56.510Z,95.04
2023-01-04T07:41:49.759Z,97.29
2023-01-04T07:42:48.735Z,100.01
2023-01-04T07:43:48.752Z,101.83
2023-01-04T07:44:48.716Z,103.97
2023-01-04T07:45:48.760Z,105.61
2023-01-04T07:46:48.731Z,107.70
2023-01-04T07:47:48.688Z,109.81
2023-01-04T07:48:48.701Z,112.23
2023-01-04T07:49:48.686Z,114.68
2023-01-04T07:50:48.628Z,117.08
2023-01-04T07:51:48.654Z,119.32
2023-01-04T07:52:48.615Z,120.69
2023-01-04T07:53:48.641Z,122.01
2023-01-04T07:54:48.610Z,122.72
2023-01-04T07:55:48.607Z,125.47
2023-01-04T07:56:48.584Z,128.05
2023-01-04T07:57:48.569Z,129.83
2023-01-04T07:58:48.572Z,131.24
2023-01-04T07:59:48.564Z,133.01
2023-01-04T08:00:48.559Z,134.18
2023-01-04T08:01:48.626Z,136.02
2023-01-04T08:02:48.595Z,137.69
2023-01-04T08:03:48.519Z,138.83
2023-01-04T08:04:48.528Z,139.99
2023-01-04T08:05:48.512Z,140.69
2023-01-04T08:06:48.469Z,142.12
2023-01-04T08:07:48.458Z,141.40
2023-01-04T08:08:48.446Z,142.72
2023-01-04T08:09:48.477Z,144.81
2023-01-04T08:10:48.413Z,146.32
2023-01-04T08:11:48.418Z,146.07
2023-01-04T08:12:48.386Z,148.65
2023-01-04T08:13:48.404Z,149.84
2023-01-04T08:14:48.372Z,151.19
2023-01-04T08:15:48.435Z,150.78
2023-01-04T08:16:48.341Z,151.46
2023-01-04T08:17:48.358Z,152.84
2023-01-04T08:18:48.341Z,152.70
2023-01-04T08:19:48.314Z,153.12
2023-01-04T08:20:51.075Z,154.10
2023-01-04T08:21:49.296Z,154.67
2023-01-04T08:22:48.282Z,154.67
2023-01-04T08:23:48.278Z,155.10
2023-01-04T08:24:48.270Z,155.24
2023-01-04T08:25:48.257Z,156.25
2023-01-04T08:26:48.219Z,156.40
2023-01-04T08:27:48.236Z,156.83
2023-01-04T08:28:48.205Z,157.13
2023-01-04T08:29:48.231Z,157.86
2023-01-04T08:30:48.213Z,158.61
2023-01-04T08:31:48.270Z,156.98
2023-01-04T08:32:48.151Z,156.54
2023-01-04T08:33:48.152Z,155.96
2023-01-04T08:34:48.150Z,156.10
2023-01-04T08:35:48.156Z,156.40
2023-01-04T08:36:48.125Z,156.10
2023-01-04T08:37:48.126Z,155.96
2023-01-04T08:38:59.284Z,156.25
2023-01-04T08:39:50.041Z,156.54
2023-01-04T08:41:00.005Z,156.69
2023-01-04T08:41:58.427Z,155.82
2023-01-04T08:42:49.060Z,156.69
2023-01-04T08:43:48.050Z,156.83
2023-01-04T08:44:48.042Z,157.57
2023-01-04T08:45:48.036Z,157.57
2023-01-04T08:46:48.093Z,156.98
2023-01-04T08:47:48.009Z,156.98
2023-01-04T08:48:47.973Z,157.13
2023-01-04T08:49:47.998Z,156.10
2023-01-04T08:50:47.955Z,153.40
2023-01-04T08:51:47.975Z,153.26
2023-01-04T08:52:47.933Z,154.24
2023-01-04T08:53:47.940Z,154.53
2023-01-04T08:54:47.918Z,154.95
2023-01-04T08:55:47.927Z,154.95
2023-01-04T08:56:47.882Z,154.38
2023-01-04T08:57:47.896Z,153.12
2023-01-04T08:58:47.859Z,153.68
2023-01-04T08:59:47.878Z,153.68
2023-01-04T09:00:47.852Z,155.24
2023-01-04T09:01:48.045Z,154.67
2023-01-04T09:02:47.987Z,153.26
2023-01-04T09:03:47.817Z,145.82
2023-01-04T09:04:47.859Z,134.71
2023-01-04T09:05:47.808Z,130.03
2023-01-04T09:06:47.784Z,131.86
2023-01-04T09:07:47.782Z,136.24
2023-01-04T09:08:47.751Z,140.34
2023-01-04T09:09:47.779Z,144.44
2023-01-04T09:10:47.727Z,149.31
2023-01-04T09:11:47.738Z,154.24
2023-01-04T09:12:47.708Z,158.76
2023-01-04T09:13:47.717Z,161.50
2023-01-04T09:14:47.711Z,162.75
2023-01-04T09:15:47.693Z,165.97
2023-01-04T09:16:47.760Z,168.80
2023-01-04T09:18:20.549Z,170.34
2023-01-04T09:18:48.635Z,168.97
2023-01-04T09:19:47.666Z,172.26
2023-01-04T09:20:47.634Z,173.50
2023-01-04T09:21:47.661Z,176.79
2023-01-04T09:22:47.591Z,179.05
2023-01-04T09:23:47.591Z,181.36
2023-01-04T09:24:47.584Z,185.16
2023-01-04T09:25:47.575Z,184.96
2023-01-04T09:26:47.601Z,185.45
2023-01-04T09:27:47.542Z,186.39
2023-01-04T09:28:47.525Z,187.13
2023-01-04T09:29:47.530Z,187.87
2023-01-04T09:30:47.521Z,189.49
2023-01-04T09:31:47.611Z,189.27
2023-01-04T09:32:47.478Z,189.92
2023-01-04T09:34:13.239Z,191.35
2023-01-04T09:34:48.455Z,193.03
2023-01-04T09:35:47.472Z,192.92
2023-01-04T09:36:47.448Z,193.71
2023-01-04T09:37:47.433Z,194.05
2023-01-04T09:38:47.407Z,193.82
2023-01-04T09:39:47.416Z,195.66
2023-01-04T09:40:47.401Z,194.96
2023-01-04T09:41:47.390Z,194.62
2023-01-04T09:42:47.368Z,194.85
2023-01-04T09:43:47.363Z,195.20
2023-01-04T09:45:48.357Z,195.43
2023-01-04T09:46:47.359Z,194.85
2023-01-04T09:47:47.327Z,197.17
2023-01-04T09:48:47.294Z,196.82
2023-01-04T09:49:47.348Z,196.71
2023-01-04T09:50:47.283Z,196.47
2023-01-04T09:51:47.279Z,196.82
2023-01-04T09:52:47.290Z,196.59
2023-01-04T09:53:47.251Z,197.88
2023-01-04T09:54:47.235Z,196.94
2023-01-04T09:55:47.258Z,195.08
2023-01-04T09:56:47.216Z,194.62
2023-01-04T09:57:47.204Z,194.51
2023-01-04T09:58:47.191Z,195.77
2023-01-04T09:59:47.203Z,195.31
2023-01-04T10:00:47.229Z,194.96
2023-01-04T10:01:47.382Z,195.43
2023-01-04T10:02:47.279Z,194.28
2023-01-04T10:03:47.184Z,194.16
2023-01-04T10:04:47.120Z,194.96
2023-01-04T10:05:47.124Z,194.05
2023-01-04T10:06:47.104Z,195.66
2023-01-04T10:07:47.106Z,195.54
2023-01-04T10:08:47.070Z,194.51
2023-01-04T10:09:47.148Z,196.82
2023-01-04T10:10:47.173Z,195.77
2023-01-04T10:11:47.158Z,196.47
2023-01-04T10:12:47.111Z,196.71
2023-01-04T10:13:47.115Z,197.29
2023-01-04T10:14:46.997Z,199.19
2023-01-04T10:15:47.033Z,199.92
2023-01-04T10:21:12.037Z,200.04
2023-01-04T10:21:48.172Z,201.50
2023-01-04T10:22:46.922Z,202.24
2023-01-04T10:23:46.915Z,202.86
2023-01-04T10:24:46.906Z,202.99
2023-01-04T10:25:46.908Z,205.00
2023-01-04T10:26:46.867Z,204.62
2023-01-04T10:27:46.871Z,205.64
2023-01-04T10:28:46.861Z,205.38
2023-01-04T10:29:46.850Z,207.97
2023-01-04T10:30:46.844Z,210.21
2023-01-04T10:31:46.826Z,211.02
2023-01-04T10:32:46.809Z,209.28
2023-01-04T10:33:46.796Z,209.55
2023-01-04T10:34:46.805Z,208.75
2023-01-04T10:35:46.765Z,208.75
2023-01-04T10:36:46.790Z,208.89
2023-01-04T10:37:46.741Z,209.15
2023-01-04T10:38:46.828Z,208.62
2023-01-04T10:39:46.724Z,209.28
2023-01-04T10:40:46.735Z,209.28
2023-01-04T10:41:46.690Z,207.97
2023-01-04T10:42:46.741Z,210.88
2023-01-04T10:44:11.462Z,210.08
2023-01-04T10:44:47.668Z,213.47
2023-01-04T10:45:46.679Z,214.16
2023-01-04T10:46:46.713Z,213.34
2023-01-04T10:47:46.629Z,213.89
2023-01-04T10:48:46.671Z,213.61
2023-01-04T10:49:46.599Z,215.84
2023-01-04T10:50:46.631Z,216.12
2023-01-04T10:51:46.600Z,217.69
2023-01-04T10:52:46.592Z,218.26
2023-01-04T10:53:46.575Z,218.84
2023-01-04T10:54:46.571Z,219.71
2023-01-04T10:56:23.167Z,219.71
2023-01-04T10:56:47.563Z,219.13
2023-01-04T10:57:46.519Z,221.33
2023-01-04T10:58:46.519Z,223.88
2023-01-04T10:59:46.520Z,222.38
2023-01-04T11:00:46.565Z,220.74
2023-01-04T11:01:46.828Z,222.23
2023-01-04T11:02:46.660Z,220.30
2023-01-04T11:03:46.498Z,222.38
2023-01-04T11:04:46.496Z,223.13
2023-01-04T11:05:46.437Z,225.41
2023-01-04T11:06:46.423Z,225.26
2023-01-04T11:07:46.403Z,226.02
2023-01-04T11:08:46.402Z,226.80
2023-01-04T11:09:46.376Z,224.95
2023-01-04T11:10:46.390Z,228.21
2023-01-04T11:11:46.357Z,226.49
2023-01-04T11:12:46.364Z,228.37
2023-01-04T11:13:46.334Z,226.02
2023-01-04T11:14:46.340Z,224.95
2023-01-04T11:15:46.306Z,221.48
2023-01-04T11:16:46.389Z,222.53
2023-01-04T11:17:46.285Z,221.04
2023-01-04T11:18:46.291Z,223.43
2023-01-04T11:19:46.261Z,222.23
2023-01-04T11:20:46.282Z,221.04
2023-01-04T11:21:46.238Z,221.04
2023-01-04T11:22:46.247Z,224.19
2023-01-04T11:23:46.220Z,221.33
2023-01-04T11:25:07.764Z,220.30
2023-01-04T11:25:53.641Z,218.70
2023-01-04T11:26:47.199Z,221.04
2023-01-04T11:27:46.173Z,219.57
2023-01-04T11:28:46.173Z,220.60
2023-01-04T11:29:46.169Z,222.23
2023-01-04T11:30:46.152Z,223.88
2023-01-04T11:31:46.204Z,221.93
2023-01-04T11:32:46.131Z,223.13
2023-01-04T11:33:46.180Z,221.93
2023-01-04T11:34:46.106Z,215.00
2023-01-04T11:35:46.102Z,204.37
2023-01-04T11:36:46.084Z,203.74
2023-01-04T11:37:46.063Z,201.87
2023-01-04T11:38:46.061Z,199.92
2023-01-04T11:39:46.032Z,199.43
2023-01-04T11:40:46.043Z,197.76
2023-01-04T11:41:46.011Z,196.47
2023-01-04T11:42:46.018Z,197.06
2023-01-04T11:43:46.046Z,194.85
2023-01-04T11:44:45.994Z,197.17
2023-01-04T11:45:46.012Z,197.88
2023-01-04T11:46:45.979Z,194.39
2023-01-04T11:47:45.940Z,198.71
2023-01-04T11:48:45.963Z,201.26
2023-01-04T11:49:45.925Z,200.89
2023-01-04T11:50:45.948Z,198.60
2023-01-04T11:51:45.915Z,184.75
2023-01-04T11:52:45.901Z,169.99
2023-01-04T11:53:45.877Z,155.53
2023-01-04T11:54:45.861Z,143.94
2023-01-04T11:55:45.884Z,138.49
2023-01-04T11:56:45.877Z,133.01
2023-01-04T11:57:45.825Z,126.50
2023-01-04T11:58:45.834Z,119.49
2023-01-04T11:59:45.982Z,113.83
2023-01-04T12:00:45.829Z,108.82
2023-01-04T12:01:45.809Z,102.33
2023-01-04T12:03:02.222Z,94.24
2023-01-04T12:03:46.766Z,91.15
2023-01-04T12:04:45.768Z,91.25
2023-01-04T12:05:45.748Z,94.00
2023-01-04T12:06:45.741Z,93.77
2023-01-04T12:07:45.721Z,97.35
2023-01-04T12:08:45.724Z,100.55
2023-01-04T12:09:45.697Z,102.26
2023-01-04T12:10:45.706Z,101.77
2023-01-04T12:11:45.679Z,104.23
2023-01-04T12:12:45.804Z,105.54
2023-01-04T12:13:45.656Z,107.98
2023-01-04T12:14:45.657Z,110.68
2023-01-04T12:15:45.629Z,114.84
2023-01-04T12:16:45.642Z,118.82
2023-01-04T12:17:45.611Z,122.63
2023-01-04T12:18:45.600Z,126.89
2023-01-04T12:19:45.584Z,130.13
2023-01-04T12:20:45.590Z,130.84
2023-01-04T12:21:45.614Z,131.55
2023-01-04T12:22:45.561Z,128.14
2023-01-04T12:23:45.533Z,129.23
2023-01-04T12:24:45.544Z,128.14
2023-01-04T12:25:45.554Z,127.46
2023-01-04T12:26:45.525Z,128.34
2023-01-04T12:27:45.487Z,131.24
2023-01-04T12:28:45.520Z,132.80
2023-01-04T12:29:45.477Z,135.04
2023-01-04T12:30:45.479Z,137.58
2023-01-04T12:31:45.430Z,139.18
2023-01-04T12:32:45.454Z,141.76
2023-01-04T12:33:45.448Z,138.95
2023-01-04T12:34:45.429Z,130.43
2023-01-04T12:35:45.397Z,134.39
2023-01-04T12:36:45.410Z,138.15
2023-01-04T12:37:45.372Z,141.28
2023-01-04T12:38:45.375Z,142.12
2023-01-04T12:39:45.356Z,144.31
2023-01-04T12:40:45.363Z,146.96
2023-01-04T12:41:45.319Z,148.65
2023-01-04T12:42:45.338Z,147.87
2023-01-04T12:43:47.156Z,149.84
2023-01-04T12:44:45.320Z,150.38
2023-01-04T12:45:45.315Z,150.78
2023-01-04T12:46:45.282Z,152.01
2023-01-04T12:47:45.254Z,154.24
2023-01-04T12:48:45.264Z,154.95
2023-01-04T12:49:45.244Z,157.42
2023-01-04T12:50:52.204Z,158.91
2023-01-04T12:51:58.394Z,159.81
2023-01-04T12:53:46.189Z,161.50
2023-01-04T12:54:45.209Z,161.66
2023-01-04T12:55:45.210Z,162.44
2023-01-04T12:56:45.197Z,163.39
2023-01-04T12:57:45.168Z,163.54
2023-01-04T12:59:24.008Z,163.86
2023-01-04T12:59:46.118Z,166.13
2023-01-04T13:00:45.175Z,168.80
2023-01-04T13:01:45.229Z,167.46
2023-01-04T13:02:45.263Z,166.13
2023-01-04T13:03:45.180Z,165.80
2023-01-04T13:04:45.090Z,164.99
2023-01-04T13:05:55.884Z,167.62
2023-01-04T13:06:46.078Z,168.29
2023-01-04T13:07:45.028Z,169.31
2023-01-04T13:08:45.051Z,171.21
2023-01-04T13:09:48.330Z,173.32
2023-01-04T13:10:45.026Z,175.68
2023-01-04T13:11:44.994Z,177.16
2023-01-04T13:12:44.984Z,179.81
2023-01-04T13:13:44.971Z,180.20
2023-01-04T13:14:44.957Z,180.59
2023-01-04T13:15:44.929Z,182.94
2023-01-04T13:16:45.022Z,183.34
2023-01-04T13:17:44.912Z,182.94
2023-01-04T13:18:44.905Z,184.15
2023-01-04T13:19:44.894Z,184.15
2023-01-04T13:20:44.901Z,182.15
2023-01-04T13:21:44.887Z,183.94
2023-01-04T13:22:44.872Z,184.15
2023-01-04T13:23:44.848Z,182.55
2023-01-04T13:24:44.860Z,182.74
2023-01-04T13:25:44.826Z,182.15
2023-01-04T13:26:44.826Z,182.94
2023-01-04T13:27:44.831Z,184.35
2023-01-04T13:28:44.804Z,182.55
2023-01-04T13:29:44.791Z,183.34
2023-01-04T13:30:44.844Z,182.94
2023-01-04T13:31:44.788Z,182.35
2023-01-04T13:33:23.775Z,183.34
2023-01-04T13:33:45.731Z,182.15
2023-01-04T13:34:44.740Z,184.35
2023-01-04T13:35:44.705Z,184.35
2023-01-04T13:36:44.714Z,183.74
2023-01-04T13:37:44.778Z,181.36
2023-01-04T13:38:44.692Z,186.18
2023-01-04T13:39:44.664Z,186.92
2023-01-04T13:40:49.115Z,187.98
2023-01-04T13:41:45.733Z,188.19
2023-01-04T13:42:44.639Z,188.30
2023-01-04T13:43:44.626Z,188.41
2023-01-04T13:45:17.665Z,186.18
2023-01-04T13:45:45.596Z,187.34
2023-01-04T13:46:44.673Z,185.77
2023-01-04T13:47:44.560Z,184.96
2023-01-04T13:48:44.589Z,182.55
2023-01-04T13:49:44.545Z,182.94
2023-01-04T13:50:44.539Z,183.14
2023-01-04T13:51:44.529Z,180.97
2023-01-04T13:52:55.165Z,179.43
2023-01-04T13:53:45.509Z,176.05
2023-01-04T13:54:44.508Z,173.68
2023-01-04T13:55:44.481Z,172.97
2023-01-04T13:56:48.246Z,170.17
2023-01-04T13:57:45.457Z,172.61
2023-01-04T13:58:44.465Z,170.68
2023-01-04T13:59:44.436Z,170.68
2023-01-04T14:00:44.428Z,173.50
2023-01-04T14:01:44.550Z,174.22
2023-01-04T14:02:44.535Z,175.86
2023-01-04T14:03:44.473Z,176.05
2023-01-04T14:04:44.405Z,179.05
2023-01-04T14:05:44.369Z,181.76
2023-01-04T14:06:44.407Z,182.15
2023-01-04T14:07:44.337Z,184.15
2023-01-04T14:08:44.335Z,184.55
2023-01-04T14:09:44.339Z,184.35
2023-01-04T14:10:44.325Z,185.98
2023-01-04T14:11:44.288Z,185.77
2023-01-04T14:12:44.313Z,185.57
2023-01-04T14:13:44.271Z,185.77
2023-01-04T14:14:44.292Z,186.18
2023-01-04T14:15:44.277Z,189.16
2023-01-04T14:16:44.292Z,192.13
2023-01-04T14:17:48.155Z,193.71
2023-01-04T14:18:44.225Z,193.14
2023-01-04T14:19:44.243Z,194.05
2023-01-04T14:20:44.218Z,192.58
2023-01-04T14:21:44.173Z,191.80
2023-01-04T14:22:44.195Z,190.25
2023-01-04T14:23:44.153Z,190.91
2023-01-04T14:25:13.618Z,190.03
2023-01-04T14:25:45.218Z,183.74
2023-01-04T14:26:44.135Z,180.78
2023-01-04T14:27:44.104Z,175.49
2023-01-04T14:28:49.977Z,173.50
2023-01-04T14:29:45.136Z,176.60
2023-01-04T14:30:44.131Z,179.62
2023-01-04T14:31:44.132Z,181.95
2023-01-04T14:32:44.077Z,183.54
2023-01-04T14:33:44.073Z,185.66
2023-01-04T14:34:44.038Z,187.87
2023-01-04T14:35:47.768Z,190.91
2023-01-04T14:36:45.034Z,192.02
2023-01-04T14:37:43.992Z,192.36
2023-01-04T14:38:44.000Z,192.69
2023-01-04T14:39:43.968Z,192.13
2023-01-04T14:40:43.978Z,193.93
2023-01-04T14:41:43.949Z,197.41
2023-01-04T14:42:43.951Z,197.29
2023-01-04T14:43:43.946Z,198.24
2023-01-04T14:44:43.930Z,200.40
2023-01-04T14:45:43.906Z,201.99
2023-01-04T14:46:43.955Z,202.86
2023-01-04T14:47:43.889Z,202.99
2023-01-04T14:48:43.872Z,202.12
2023-01-04T14:49:43.863Z,200.16
2023-01-04T14:50:43.835Z,200.40
2023-01-04T14:51:43.863Z,200.04
2023-01-04T14:52:43.817Z,200.28
2023-01-04T14:53:43.817Z,199.19
2023-01-04T14:54:43.804Z,199.19
2023-01-04T14:55:43.816Z,196.59
2023-01-04T14:56:43.788Z,194.74
2023-01-04T14:57:43.771Z,194.62
2023-01-04T14:58:43.769Z,194.51
2023-01-04T14:59:43.751Z,194.28
2023-01-04T15:00:43.748Z,193.48
2023-01-04T15:01:43.866Z,193.60
2023-01-04T15:02:43.991Z,194.05
2023-01-04T15:03:43.765Z,195.20
2023-01-04T15:04:43.676Z,195.20
2023-01-04T15:05:43.677Z,195.66
2023-01-04T15:06:43.662Z,195.31
2023-01-04T15:07:43.671Z,195.20
2023-01-04T15:08:43.628Z,195.89
2023-01-04T15:09:43.647Z,193.37
2023-01-04T15:10:43.625Z,191.91
2023-01-04T15:11:43.607Z,191.57
2023-01-04T15:12:43.639Z,191.13
2023-01-04T15:13:43.590Z,193.03
2023-01-04T15:14:43.560Z,193.14
2023-01-04T15:15:43.627Z,193.48
2023-01-04T15:16:43.581Z,192.47
2023-01-04T15:17:43.547Z,191.02
2023-01-04T15:18:43.523Z,191.24
2023-01-04T15:19:43.519Z,190.36
2023-01-04T15:20:43.504Z,190.14
2023-01-04T15:21:43.509Z,190.25
2023-01-04T15:22:43.467Z,188.41
2023-01-04T15:23:43.469Z,189.38
2023-01-04T15:24:43.448Z,187.87
2023-01-04T15:25:43.458Z,186.71
2023-01-04T15:26:43.446Z,186.18
2023-01-04T15:27:43.444Z,187.66
2023-01-04T15:28:43.400Z,187.87
2023-01-04T15:29:43.428Z,188.52
2023-01-04T15:30:43.398Z,190.36
2023-01-04T15:31:43.406Z,190.36
2023-01-04T15:32:43.359Z,188.84
2023-01-04T15:33:43.350Z,190.58
2023-01-04T15:34:46.775Z,190.14
2023-01-04T15:35:43.346Z,189.16
2023-01-04T15:36:43.318Z,188.62
2023-01-04T15:37:43.312Z,189.05
2023-01-04T15:38:43.308Z,189.71
2023-01-04T15:39:43.286Z,189.16
2023-01-04T15:40:43.281Z,189.49
2023-01-04T15:41:43.294Z,188.52
2023-01-04T15:42:43.244Z,188.73
2023-01-04T15:43:43.242Z,190.58
2023-01-04T15:44:43.202Z,188.84
2023-01-04T15:45:43.251Z,188.30
2023-01-04T15:46:43.283Z,185.36
2023-01-04T15:47:43.236Z,182.35
2023-01-04T15:48:43.164Z,184.96
2023-01-04T15:49:43.179Z,185.57
2023-01-04T15:50:43.145Z,185.98
2023-01-04T15:51:43.174Z,185.98
2023-01-04T15:52:43.123Z,185.36
2023-01-04T15:53:43.123Z,185.57
2023-01-04T15:54:43.104Z,184.35
2023-01-04T15:55:43.122Z,183.54
2023-01-04T15:56:43.083Z,184.75
2023-01-04T15:57:44.269Z,184.96
2023-01-04T15:58:43.059Z,182.74
2023-01-04T15:59:43.082Z,179.62
2023-01-04T16:00:43.042Z,180.39
2023-01-04T16:01:43.199Z,179.81
2023-01-04T16:02:43.073Z,179.24
2023-01-04T16:03:44.014Z,178.10
2023-01-04T16:04:42.986Z,181.95
2023-01-04T16:05:43.014Z,184.75
2023-01-04T16:06:42.972Z,186.29
2023-01-04T16:07:42.967Z,187.87
2023-01-04T16:08:42.950Z,191.24
2023-01-04T16:09:42.993Z,193.48
2023-01-04T16:10:42.934Z,192.36
2023-01-04T16:11:42.929Z,191.35
2023-01-04T16:12:42.929Z,192.02
2023-01-04T16:13:42.916Z,191.91
2023-01-04T16:14:42.876Z,190.58
2023-01-04T16:15:42.890Z,189.16
2023-01-04T16:16:42.875Z,189.92
2023-01-04T16:17:42.847Z,192.69
2023-01-04T16:18:42.839Z,190.14
2023-01-04T16:19:42.830Z,189.82
2023-01-04T16:20:42.801Z,185.98
2023-01-04T16:21:42.827Z,184.35
2023-01-04T16:22:42.776Z,183.74
2023-01-04T16:23:42.796Z,184.75
2023-01-04T16:25:09.870Z,178.67
2023-01-04T16:25:43.779Z,177.53
2023-01-04T16:26:42.746Z,176.05
2023-01-04T16:27:42.739Z,172.43
2023-01-04T16:28:42.729Z,169.82
2023-01-04T16:29:42.711Z,162.75
2023-01-04T16:30:42.702Z,157.71
2023-01-04T16:31:42.854Z,158.31
2023-01-04T16:32:42.679Z,160.73
2023-01-04T16:33:42.661Z,162.91
2023-01-04T16:34:42.649Z,166.62
2023-01-04T16:35:42.638Z,166.29
2023-01-04T16:36:42.627Z,162.75
2023-01-04T16:37:42.617Z,160.27
2023-01-04T16:38:42.598Z,160.42
2023-01-04T16:40:05.835Z,160.27
2023-01-04T16:40:43.597Z,157.57
2023-01-04T16:41:42.576Z,154.67
2023-01-04T16:42:42.548Z,155.67
2023-01-04T16:43:42.548Z,158.91
2023-01-04T16:44:42.534Z,158.16
2023-01-04T16:45:42.555Z,158.31
2023-01-04T16:46:42.531Z,159.06
2023-01-04T16:47:42.513Z,159.36
2023-01-04T16:48:42.479Z,159.36
2023-01-04T16:49:42.487Z,158.91
2023-01-04T16:50:42.456Z,158.91
2023-01-04T16:51:42.465Z,158.16
2023-01-04T16:52:42.434Z,158.61
2023-01-04T16:53:42.430Z,159.21
2023-01-04T16:54:42.417Z,160.12
2023-01-04T16:55:42.425Z,159.81
2023-01-04T16:56:42.423Z,157.57
2023-01-04T16:57:42.393Z,154.95
2023-01-04T16:58:42.360Z,154.67
2023-01-04T16:59:42.387Z,153.82
2023-01-04T17:00:42.421Z,151.60
2023-01-04T17:01:49.866Z,150.78
2023-01-04T17:02:43.385Z,150.78
2023-01-04T17:03:42.370Z,144.56
2023-01-04T17:04:42.295Z,133.12
2023-01-04T17:05:42.303Z,128.93
2023-01-04T17:06:42.287Z,127.85
2023-01-04T17:07:42.287Z,126.69
2023-01-04T17:08:42.268Z,129.33
2023-01-04T17:09:42.272Z,129.23
2023-01-04T17:10:42.261Z,128.73
2023-01-04T17:12:47.972Z,125.19
2023-01-04T17:13:43.201Z,123.44
2023-01-04T17:14:42.203Z,119.07
2023-01-04T17:15:44.892Z,112.23
2023-01-04T17:16:42.211Z,109.03
2023-01-04T17:17:42.174Z,108.54
2023-01-04T17:18:42.140Z,104.36
2023-01-04T17:19:42.135Z,100.85
2023-01-04T17:20:42.120Z,95.47
2023-01-04T17:21:42.144Z,89.88
2023-01-04T17:22:42.095Z,82.96
2023-01-04T17:23:42.100Z,78.77
2023-01-04T17:24:42.065Z,74.24
2023-01-04T17:25:42.113Z,73.59
2023-01-04T17:26:42.057Z,72.70
2023-01-04T17:27:42.054Z,70.86
2023-01-04T17:28:42.038Z,69.69
2023-01-04T17:29:42.049Z,68.55
2023-01-04T17:30:42.007Z,67.13
2023-01-04T17:31:42.002Z,64.21
2023-01-04T17:32:41.964Z,62.58
2023-01-04T17:33:41.990Z,60.60
2023-01-04T17:34:41.962Z,58.41
2023-01-04T17:35:42.005Z,55.62
2023-01-04T17:36:41.916Z,53.16
2023-01-04T17:37:41.933Z,50.36
2023-01-04T17:38:41.906Z,48.70
2023-01-04T17:39:41.905Z,47.35
2023-01-04T17:40:41.892Z,47.81
2023-01-04T17:41:41.923Z,48.84
2023-01-04T17:42:41.868Z,47.22
2023-01-04T17:43:41.878Z,49.38
2023-01-04T17:44:41.873Z,51.63
2023-01-04T17:45:41.898Z,50.63
2023-01-04T17:46:41.926Z,48.50
2023-01-04T17:47:41.822Z,45.73
2023-01-04T17:48:41.805Z,45.48
2023-01-04T17:49:41.799Z,44.43
2023-01-04T17:50:41.795Z,43.60
2023-01-04T17:51:41.799Z,43.33
2023-01-04T17:52:41.827Z,43.02
2023-01-04T17:53:41.763Z,41.37
2023-01-04T17:54:41.755Z,40.26
2023-01-04T17:55:41.725Z,38.81
2023-01-04T17:56:41.793Z,38.60
2023-01-04T17:58:41.695Z,45.98
2023-01-04T17:59:41.680Z,51.03
2023-01-04T18:00:41.720Z,58.98
2023-01-04T18:01:41.809Z,65.10
2023-01-04T18:02:41.722Z,73.15
2023-01-04T18:03:44.580Z,83.29
2023-01-04T18:04:41.678Z,92.45
2023-01-04T18:05:52.044Z,97.69
2023-01-04T18:06:42.579Z,105.47
2023-01-04T18:07:41.588Z,112.68
2023-01-04T18:08:41.557Z,120.43
2023-01-04T18:09:41.570Z,126.69
2023-01-04T18:11:06.237Z,133.22
2023-01-04T18:11:42.577Z,139.64
2023-01-04T18:12:41.520Z,144.44
2023-01-04T18:14:41.514Z,155.67
2023-01-04T18:15:55.084Z,160.88
2023-01-04T18:16:42.502Z,167.29
2023-01-04T18:17:41.469Z,175.68
2023-01-04T18:18:41.459Z,184.35
2023-01-04T18:19:44.572Z,189.38
2023-01-04T18:20:46.303Z,195.66
2023-01-04T18:21:42.459Z,203.61
2023-01-04T18:22:41.420Z,210.48
2023-01-04T18:23:44.026Z,220.89
2023-01-04T18:24:42.440Z,227.58
2023-01-04T18:25:41.410Z,233.04
2023-01-04T18:27:10.654Z,240.32
2023-01-04T18:27:42.372Z,249.57
2023-01-04T18:28:41.334Z,260.59
2023-01-04T18:29:41.364Z,267.98
2023-01-04T18:30:41.320Z,274.21
2023-01-04T18:31:41.390Z,280.25
2023-01-04T18:32:41.314Z,287.32
2023-01-04T18:33:41.310Z,291.63
2023-01-04T18:34:41.294Z,299.83
2023-01-04T18:35:41.374Z,307.92
2023-01-04T18:36:42.728Z,314.97
2023-01-04T18:37:41.360Z,323.28
2023-01-04T18:38:41.304Z,326.48
2023-01-04T18:39:41.288Z,328.10
2023-01-04T18:40:41.310Z,334.40
2023-01-04T18:41:41.253Z,338.17
2023-01-04T18:42:41.166Z,339.55
2023-01-04T18:43:53.541Z,343.08
2023-01-04T18:44:47.994Z,347.04
2023-01-04T18:45:42.299Z,347.40
2023-01-04T18:46:41.189Z,353.72
2023-01-04T18:47:41.151Z,357.55
2023-01-04T18:48:41.180Z,357.94
2023-01-04T18:49:41.110Z,364.25
2023-01-04T18:50:41.114Z,361.86
2023-01-04T18:51:41.120Z,367.08
2023-01-04T18:52:41.073Z,369.95
2023-01-04T18:53:41.064Z,376.70
2023-01-04T18:54:41.054Z,381.50
2023-01-04T18:55:41.063Z,385.22
2023-01-04T18:56:41.001Z,387.44
2023-01-04T18:57:41.114Z,383.68
2023-01-04T18:58:40.983Z,388.79
2023-01-04T18:59:41.070Z,386.55
2023-01-04T19:00:41.011Z,374.14
2023-01-04T19:01:41.082Z,378.49
2023-01-04T19:02:41.275Z,382.37
2023-01-04T19:03:40.987Z,386.55
2023-01-04T19:04:40.963Z,388.56
2023-01-04T19:05:41.008Z,394.03
2023-01-04T19:06:41.090Z,397.77
2023-01-04T19:07:40.883Z,398.95
2023-01-04T19:08:40.885Z,398.47
2023-01-04T19:09:40.882Z,398.71
2023-01-04T19:10:40.900Z,401.09
2023-01-04T19:11:40.893Z,403.74
2023-01-04T19:12:40.836Z,406.43
2023-01-04T19:13:40.861Z,403.98
2023-01-04T19:14:40.824Z,404.47
2023-01-04T19:15:47.187Z,408.65
2023-01-04T19:16:41.880Z,407.66
2023-01-04T19:17:40.776Z,408.65
2023-01-04T19:18:40.774Z,409.65
2023-01-04T19:19:40.777Z,412.67
2023-01-04T19:20:40.748Z,416.51
2023-01-04T19:21:40.746Z,412.16
2023-01-04T19:22:40.768Z,412.67
2023-01-04T19:23:40.709Z,413.69
2023-01-04T19:24:40.755Z,413.94
2023-01-04T19:25:40.716Z,417.80
2023-01-04T19:26:40.697Z,417.80
2023-01-04T19:27:40.654Z,416.51
2023-01-04T19:28:40.667Z,418.06
2023-01-04T19:29:40.641Z,422.27
2023-01-04T19:30:40.669Z,416.25
2023-01-04T19:31:40.689Z,418.85
2023-01-04T19:32:40.694Z,423.87
2023-01-04T19:33:40.611Z,424.40
2023-01-04T19:34:40.605Z,426.02
2023-01-04T19:35:40.582Z,422.80
2023-01-04T19:36:40.589Z,424.67
2023-01-04T19:37:40.602Z,421.21
2023-01-04T19:38:40.549Z,421.74
2023-01-04T19:39:40.529Z,420.15
2023-01-04T19:40:40.615Z,419.37
2023-01-04T19:41:40.554Z,422.53